sensor_id;sensor_type;location;lat;lon;timestamp;P1;durP1;ratioP1;P2;durP2;ratioP2
57969;SDS011;43777;42.656;23.264;2022-08-01T00:00:16;4.75;;;3.30;;
57969;SDS011;43777;42.656;23.264;2022-08-01T00:02:42;3.30;;;3.00;;
57969;SDS011;43777;42.656;23.264;2022-08-01T00:05:08;4.20;;;3.17;;
57969;SDS011;43777;42.656;23.264;2022-08-01T00:07:36;3.15;;;2.85;;
57969;SDS011;43777;42.656;23.264;2022-08-01T00:10:05;3.00;;;2.67;;
57969;SDS011;43777;42.656;23.264;2022-08-01T00:12:31;3.40;;;3.10;;
57969;SDS011;43777;42.656;23.264;2022-08-01T00:14:57;3.70;;;2.95;;
57969;SDS011;43777;42.656;23.264;2022-08-01T00:17:23;4.65;;;2.90;;
57969;SDS011;43777;42.656;23.264;2022-08-01T00:19:49;3.08;;;2.65;;
57969;SDS011;43777;42.656;23.264;2022-08-01T00:22:15;4.22;;;3.40;;
57969;SDS011;43777;42.656;23.264;2022-08-01T00:24:42;3.85;;;3.55;;
57969;SDS011;43777;42.656;23.264;2022-08-01T00:27:08;6.13;;;3.70;;
57969;SDS011;43777;42.656;23.264;2022-08-01T00:29:34;3.88;;;3.58;;
57969;SDS011;43777;42.656;23.264;2022-08-01T00:32:00;11.25;;;3.55;;
57969;SDS011;43777;42.656;23.264;2022-08-01T00:34:26;4.97;;;3.35;;
57969;SDS011;43777;42.656;23.264;2022-08-01T00:36:52;4.30;;;3.38;;
57969;SDS011;43777;42.656;23.264;2022-08-01T00:39:18;6.25;;;3.28;;
57969;SDS011;43777;42.656;23.264;2022-08-01T00:41:44;3.97;;;3.47;;
57969;SDS011;43777;42.656;23.264;2022-08-01T00:44:10;3.88;;;3.47;;
57969;SDS011;43777;42.656;23.264;2022-08-01T00:46:36;5.40;;;3.72;;
57969;SDS011;43777;42.656;23.264;2022-08-01T00:49:02;3.58;;;3.28;;
57969;SDS011;43777;42.656;23.264;2022-08-01T00:51:28;5.53;;;3.28;;
57969;SDS011;43777;42.656;23.264;2022-08-01T00:53:55;4.10;;;3.30;;
57969;SDS011;43777;42.656;23.264;2022-08-01T00:56:22;5.78;;;3.03;;
57969;SDS011;43777;42.656;23.264;2022-08-01T00:58:49;3.60;;;2.97;;
57969;SDS011;43777;42.656;23.264;2022-08-01T01:01:15;4.85;;;2.80;;
57969;SDS011;43777;42.656;23.264;2022-08-01T01:03:42;4.38;;;2.90;;
57969;SDS011;43777;42.656;23.264;2022-08-01T01:11:44;5.18;;;2.60;;
57969;SDS011;43777;42.656;23.264;2022-08-01T01:14:23;2.63;;;2.42;;
57969;SDS011;43777;42.656;23.264;2022-08-01T01:16:53;2.92;;;2.20;;
57969;SDS011;43777;42.656;23.264;2022-08-01T01:19:21;6.22;;;2.53;;
57969;SDS011;43777;42.656;23.264;2022-08-01T01:27:22;3.90;;;2.28;;
57969;SDS011;43777;42.656;23.264;2022-08-01T01:29:50;3.40;;;2.17;;
57969;SDS011;43777;42.656;23.264;2022-08-01T01:32:19;2.65;;;2.10;;
57969;SDS011;43777;42.656;23.264;2022-08-01T01:34:47;4.28;;;2.17;;
57969;SDS011;43777;42.656;23.264;2022-08-01T01:37:20;2.70;;;2.05;;
57969;SDS011;43777;42.656;23.264;2022-08-01T01:39:48;2.20;;;2.00;;
57969;SDS011;43777;42.656;23.264;2022-08-01T01:42:15;3.70;;;2.38;;
57969;SDS011;43777;42.656;23.264;2022-08-01T01:44:42;3.05;;;2.03;;
57969;SDS011;43777;42.656;23.264;2022-08-01T01:47:09;4.03;;;2.30;;
57969;SDS011;43777;42.656;23.264;2022-08-01T01:49:35;3.22;;;2.10;;
57969;SDS011;43777;42.656;23.264;2022-08-01T01:52:02;2.53;;;2.15;;
57969;SDS011;43777;42.656;23.264;2022-08-01T01:54:31;3.88;;;2.38;;
57969;SDS011;43777;42.656;23.264;2022-08-01T01:56:59;2.10;;;1.90;;
57969;SDS011;43777;42.656;23.264;2022-08-01T01:59:27;3.83;;;2.20;;
57969;SDS011;43777;42.656;23.264;2022-08-01T02:01:55;2.70;;;2.25;;
57969;SDS011;43777;42.656;23.264;2022-08-01T02:04:22;3.70;;;2.30;;
57969;SDS011;43777;42.656;23.264;2022-08-01T02:06:49;3.10;;;2.35;;
57969;SDS011;43777;42.656;23.264;2022-08-01T02:09:16;4.20;;;2.20;;
57969;SDS011;43777;42.656;23.264;2022-08-01T02:11:43;3.50;;;2.30;;
57969;SDS011;43777;42.656;23.264;2022-08-01T02:14:10;2.85;;;1.92;;
57969;SDS011;43777;42.656;23.264;2022-08-01T02:16:37;2.60;;;2.08;;
57969;SDS011;43777;42.656;23.264;2022-08-01T02:19:05;3.20;;;2.10;;
57969;SDS011;43777;42.656;23.264;2022-08-01T02:24:07;3.15;;;2.10;;
57969;SDS011;43777;42.656;23.264;2022-08-01T02:26:35;2.47;;;2.20;;
57969;SDS011;43777;42.656;23.264;2022-08-01T02:29:05;3.67;;;2.15;;
57969;SDS011;43777;42.656;23.264;2022-08-01T02:31:32;2.50;;;2.25;;
57969;SDS011;43777;42.656;23.264;2022-08-01T02:34:04;2.80;;;2.25;;
57969;SDS011;43777;42.656;23.264;2022-08-01T02:36:31;4.43;;;1.92;;
57969;SDS011;43777;42.656;23.264;2022-08-01T02:38:59;3.80;;;2.33;;
57969;SDS011;43777;42.656;23.264;2022-08-01T02:41:26;2.42;;;2.10;;
57969;SDS011;43777;42.656;23.264;2022-08-01T02:43:53;2.72;;;2.22;;
57969;SDS011;43777;42.656;23.264;2022-08-01T02:46:24;6.47;;;2.28;;
57969;SDS011;43777;42.656;23.264;2022-08-01T02:48:52;4.03;;;2.17;;
57969;SDS011;43777;42.656;23.264;2022-08-01T02:51:19;3.60;;;2.70;;
57969;SDS011;43777;42.656;23.264;2022-08-01T02:53:47;4.68;;;2.30;;
57969;SDS011;43777;42.656;23.264;2022-08-01T02:56:14;2.55;;;2.25;;
57969;SDS011;43777;42.656;23.264;2022-08-01T02:58:41;3.72;;;2.13;;
57969;SDS011;43777;42.656;23.264;2022-08-01T03:01:08;2.70;;;2.28;;
57969;SDS011;43777;42.656;23.264;2022-08-01T03:03:36;2.67;;;2.47;;
57969;SDS011;43777;42.656;23.264;2022-08-01T03:06:02;4.18;;;2.63;;
57969;SDS011;43777;42.656;23.264;2022-08-01T03:08:29;3.83;;;2.42;;
57969;SDS011;43777;42.656;23.264;2022-08-01T03:10:55;2.92;;;2.72;;
57969;SDS011;43777;42.656;23.264;2022-08-01T03:13:22;2.80;;;2.50;;
57969;SDS011;43777;42.656;23.264;2022-08-01T03:15:49;2.92;;;2.70;;
57969;SDS011;43777;42.656;23.264;2022-08-01T03:18:16;2.88;;;2.67;;
57969;SDS011;43777;42.656;23.264;2022-08-01T03:20:43;2.63;;;2.33;;
57969;SDS011;43777;42.656;23.264;2022-08-01T03:23:11;6.43;;;2.60;;
57969;SDS011;43777;42.656;23.264;2022-08-01T03:25:38;3.50;;;2.35;;
57969;SDS011;43777;42.656;23.264;2022-08-01T03:28:06;5.45;;;2.75;;
57969;SDS011;43777;42.656;23.264;2022-08-01T03:30:32;4.20;;;2.35;;
57969;SDS011;43777;42.656;23.264;2022-08-01T03:33:00;3.40;;;2.35;;
57969;SDS011;43777;42.656;23.264;2022-08-01T03:35:28;3.20;;;2.85;;
57969;SDS011;43777;42.656;23.264;2022-08-01T03:37:55;3.20;;;2.83;;
57969;SDS011;43777;42.656;23.264;2022-08-01T03:42:49;3.05;;;2.75;;
57969;SDS011;43777;42.656;23.264;2022-08-01T03:45:19;3.22;;;2.92;;
57969;SDS011;43777;42.656;23.264;2022-08-01T03:47:47;3.65;;;2.80;;
57969;SDS011;43777;42.656;23.264;2022-08-01T03:50:14;3.47;;;3.05;;
57969;SDS011;43777;42.656;23.264;2022-08-01T03:52:43;3.40;;;3.08;;
57969;SDS011;43777;42.656;23.264;2022-08-01T03:55:11;6.68;;;2.95;;
57969;SDS011;43777;42.656;23.264;2022-08-01T03:57:37;4.25;;;3.03;;
57969;SDS011;43777;42.656;23.264;2022-08-01T04:00:04;20.02;;;4.15;;
57969;SDS011;43777;42.656;23.264;2022-08-01T04:02:34;4.55;;;3.17;;
57969;SDS011;43777;42.656;23.264;2022-08-01T04:05:00;6.20;;;2.75;;
57969;SDS011;43777;42.656;23.264;2022-08-01T04:07:28;4.65;;;3.10;;
57969;SDS011;43777;42.656;23.264;2022-08-01T04:09:55;3.88;;;3.17;;
57969;SDS011;43777;42.656;23.264;2022-08-01T04:12:21;4.40;;;3.17;;
57969;SDS011;43777;42.656;23.264;2022-08-01T04:14:48;3.33;;;3.13;;
57969;SDS011;43777;42.656;23.264;2022-08-01T04:17:15;3.47;;;3.10;;
57969;SDS011;43777;42.656;23.264;2022-08-01T04:19:41;4.80;;;3.15;;
57969;SDS011;43777;42.656;23.264;2022-08-01T04:22:08;4.10;;;3.42;;
57969;SDS011;43777;42.656;23.264;2022-08-01T04:24:36;3.63;;;3.28;;
57969;SDS011;43777;42.656;23.264;2022-08-01T04:27:02;4.90;;;3.30;;
57969;SDS011;43777;42.656;23.264;2022-08-01T04:29:30;3.55;;;2.97;;
57969;SDS011;43777;42.656;23.264;2022-08-01T04:31:56;4.28;;;3.08;;
57969;SDS011;43777;42.656;23.264;2022-08-01T04:34:25;3.75;;;3.00;;
57969;SDS011;43777;42.656;23.264;2022-08-01T04:36:54;3.67;;;3.03;;
57969;SDS011;43777;42.656;23.264;2022-08-01T04:39:21;5.30;;;3.05;;
57969;SDS011;43777;42.656;23.264;2022-08-01T04:41:52;4.22;;;3.30;;
57969;SDS011;43777;42.656;23.264;2022-08-01T04:44:21;5.88;;;3.15;;
57969;SDS011;43777;42.656;23.264;2022-08-01T04:46:47;7.35;;;3.38;;
57969;SDS011;43777;42.656;23.264;2022-08-01T04:49:14;5.63;;;3.30;;
57969;SDS011;43777;42.656;23.264;2022-08-01T04:51:54;4.07;;;3.65;;
57969;SDS011;43777;42.656;23.264;2022-08-01T04:54:32;3.42;;;3.05;;
57969;SDS011;43777;42.656;23.264;2022-08-01T04:56:59;3.42;;;3.13;;
57969;SDS011;43777;42.656;23.264;2022-08-01T04:59:28;6.32;;;3.08;;
57969;SDS011;43777;42.656;23.264;2022-08-01T05:02:07;4.35;;;3.30;;
57969;SDS011;43777;42.656;23.264;2022-08-01T05:04:34;3.67;;;3.35;;
57969;SDS011;43777;42.656;23.264;2022-08-01T05:07:00;5.50;;;3.45;;
57969;SDS011;43777;42.656;23.264;2022-08-01T05:09:26;5.53;;;3.45;;
57969;SDS011;43777;42.656;23.264;2022-08-01T05:11:52;4.95;;;3.25;;
57969;SDS011;43777;42.656;23.264;2022-08-01T05:14:19;3.33;;;3.03;;
57969;SDS011;43777;42.656;23.264;2022-08-01T05:16:46;3.63;;;3.33;;
57969;SDS011;43777;42.656;23.264;2022-08-01T05:19:12;5.25;;;3.50;;
57969;SDS011;43777;42.656;23.264;2022-08-01T05:21:38;4.95;;;3.00;;
57969;SDS011;43777;42.656;23.264;2022-08-01T05:24:04;4.57;;;3.30;;
57969;SDS011;43777;42.656;23.264;2022-08-01T05:26:30;8.68;;;3.03;;
57969;SDS011;43777;42.656;23.264;2022-08-01T05:28:56;3.85;;;3.22;;
57969;SDS011;43777;42.656;23.264;2022-08-01T05:31:22;3.72;;;3.38;;
57969;SDS011;43777;42.656;23.264;2022-08-01T05:33:49;6.75;;;3.05;;
57969;SDS011;43777;42.656;23.264;2022-08-01T05:36:15;3.20;;;2.90;;
57969;SDS011;43777;42.656;23.264;2022-08-01T05:38:41;4.72;;;3.33;;
57969;SDS011;43777;42.656;23.264;2022-08-01T05:41:07;5.35;;;4.00;;
57969;SDS011;43777;42.656;23.264;2022-08-01T05:43:33;6.13;;;3.45;;
57969;SDS011;43777;42.656;23.264;2022-08-01T05:45:59;6.45;;;2.95;;
57969;SDS011;43777;42.656;23.264;2022-08-01T05:48:26;6.13;;;3.17;;
57969;SDS011;43777;42.656;23.264;2022-08-01T05:50:53;5.35;;;3.63;;
57969;SDS011;43777;42.656;23.264;2022-08-01T05:53:19;5.45;;;3.30;;
57969;SDS011;43777;42.656;23.264;2022-08-01T05:55:45;6.55;;;3.70;;
57969;SDS011;43777;42.656;23.264;2022-08-01T05:58:12;6.32;;;3.22;;
57969;SDS011;43777;42.656;23.264;2022-08-01T06:00:38;7.30;;;3.60;;
57969;SDS011;43777;42.656;23.264;2022-08-01T06:03:05;5.22;;;3.55;;
57969;SDS011;43777;42.656;23.264;2022-08-01T06:05:31;6.95;;;3.30;;
57969;SDS011;43777;42.656;23.264;2022-08-01T06:07:57;3.47;;;3.17;;
57969;SDS011;43777;42.656;23.264;2022-08-01T06:10:23;10.95;;;3.97;;
57969;SDS011;43777;42.656;23.264;2022-08-01T06:12:49;8.55;;;3.78;;
57969;SDS011;43777;42.656;23.264;2022-08-01T06:15:15;3.70;;;3.40;;
57969;SDS011;43777;42.656;23.264;2022-08-01T06:17:41;3.38;;;3.08;;
57969;SDS011;43777;42.656;23.264;2022-08-01T06:20:07;4.82;;;3.38;;
57969;SDS011;43777;42.656;23.264;2022-08-01T06:22:33;4.90;;;3.33;;
57969;SDS011;43777;42.656;23.264;2022-08-01T06:25:00;4.57;;;3.40;;
57969;SDS011;43777;42.656;23.264;2022-08-01T06:27:26;4.65;;;3.30;;
57969;SDS011;43777;42.656;23.264;2022-08-01T06:29:52;4.68;;;3.40;;
57969;SDS011;43777;42.656;23.264;2022-08-01T06:32:19;3.88;;;3.50;;
57969;SDS011;43777;42.656;23.264;2022-08-01T06:34:45;5.32;;;3.20;;
57969;SDS011;43777;42.656;23.264;2022-08-01T06:37:11;8.80;;;3.33;;
57969;SDS011;43777;42.656;23.264;2022-08-01T06:39:38;4.78;;;3.50;;
57969;SDS011;43777;42.656;23.264;2022-08-01T06:42:04;4.82;;;3.55;;
57969;SDS011;43777;42.656;23.264;2022-08-01T06:44:31;5.75;;;3.70;;
57969;SDS011;43777;42.656;23.264;2022-08-01T06:46:57;3.50;;;3.20;;
57969;SDS011;43777;42.656;23.264;2022-08-01T06:49:26;4.85;;;3.55;;
57969;SDS011;43777;42.656;23.264;2022-08-01T06:51:52;4.80;;;3.67;;
57969;SDS011;43777;42.656;23.264;2022-08-01T06:54:18;4.70;;;3.55;;
57969;SDS011;43777;42.656;23.264;2022-08-01T06:56:44;5.97;;;3.88;;
57969;SDS011;43777;42.656;23.264;2022-08-01T06:59:10;4.65;;;3.83;;
57969;SDS011;43777;42.656;23.264;2022-08-01T07:01:36;5.82;;;4.07;;
57969;SDS011;43777;42.656;23.264;2022-08-01T07:04:02;7.45;;;3.67;;
57969;SDS011;43777;42.656;23.264;2022-08-01T07:06:29;8.50;;;3.80;;
57969;SDS011;43777;42.656;23.264;2022-08-01T07:08:55;4.55;;;3.65;;
57969;SDS011;43777;42.656;23.264;2022-08-01T07:11:22;8.32;;;4.10;;
57969;SDS011;43777;42.656;23.264;2022-08-01T07:13:48;5.95;;;4.05;;
57969;SDS011;43777;42.656;23.264;2022-08-01T07:16:14;4.43;;;4.03;;
57969;SDS011;43777;42.656;23.264;2022-08-01T07:18:41;7.85;;;4.35;;
57969;SDS011;43777;42.656;23.264;2022-08-01T07:21:07;6.18;;;4.10;;
57969;SDS011;43777;42.656;23.264;2022-08-01T07:23:33;10.43;;;4.13;;
57969;SDS011;43777;42.656;23.264;2022-08-01T07:26:03;4.10;;;3.80;;
57969;SDS011;43777;42.656;23.264;2022-08-01T07:28:29;4.25;;;3.72;;
57969;SDS011;43777;42.656;23.264;2022-08-01T07:31:05;4.40;;;4.00;;
57969;SDS011;43777;42.656;23.264;2022-08-01T07:33:42;10.23;;;4.50;;
57969;SDS011;43777;42.656;23.264;2022-08-01T07:36:08;4.10;;;3.72;;
57969;SDS011;43777;42.656;23.264;2022-08-01T07:38:34;4.60;;;3.70;;
57969;SDS011;43777;42.656;23.264;2022-08-01T07:41:01;5.90;;;4.28;;
57969;SDS011;43777;42.656;23.264;2022-08-01T07:43:27;4.60;;;3.55;;
57969;SDS011;43777;42.656;23.264;2022-08-01T07:45:53;4.45;;;3.45;;
57969;SDS011;43777;42.656;23.264;2022-08-01T07:48:19;7.47;;;3.80;;
57969;SDS011;43777;42.656;23.264;2022-08-01T07:50:49;6.97;;;3.70;;
57969;SDS011;43777;42.656;23.264;2022-08-01T07:53:15;4.45;;;3.50;;
57969;SDS011;43777;42.656;23.264;2022-08-01T07:55:41;6.45;;;3.75;;
57969;SDS011;43777;42.656;23.264;2022-08-01T07:58:07;6.50;;;4.13;;
57969;SDS011;43777;42.656;23.264;2022-08-01T08:00:33;6.90;;;3.75;;
57969;SDS011;43777;42.656;23.264;2022-08-01T08:02:59;6.72;;;4.28;;
57969;SDS011;43777;42.656;23.264;2022-08-01T08:05:26;4.45;;;3.70;;
57969;SDS011;43777;42.656;23.264;2022-08-01T08:07:52;4.47;;;3.85;;
57969;SDS011;43777;42.656;23.264;2022-08-01T08:10:18;4.05;;;3.70;;
57969;SDS011;43777;42.656;23.264;2022-08-01T08:12:45;6.13;;;4.07;;
57969;SDS011;43777;42.656;23.264;2022-08-01T08:15:12;5.93;;;3.90;;
57969;SDS011;43777;42.656;23.264;2022-08-01T08:17:38;5.25;;;3.92;;
57969;SDS011;43777;42.656;23.264;2022-08-01T08:20:05;8.73;;;4.00;;
57969;SDS011;43777;42.656;23.264;2022-08-01T08:22:31;6.20;;;3.78;;
57969;SDS011;43777;42.656;23.264;2022-08-01T08:24:57;4.38;;;3.78;;
57969;SDS011;43777;42.656;23.264;2022-08-01T08:27:23;5.43;;;4.00;;
57969;SDS011;43777;42.656;23.264;2022-08-01T08:29:49;4.50;;;3.85;;
57969;SDS011;43777;42.656;23.264;2022-08-01T08:32:16;8.23;;;3.60;;
57969;SDS011;43777;42.656;23.264;2022-08-01T08:34:42;5.63;;;4.00;;
57969;SDS011;43777;42.656;23.264;2022-08-01T08:37:08;4.30;;;3.97;;
57969;SDS011;43777;42.656;23.264;2022-08-01T08:39:34;6.97;;;4.10;;
57969;SDS011;43777;42.656;23.264;2022-08-01T08:42:00;4.78;;;3.83;;
57969;SDS011;43777;42.656;23.264;2022-08-01T08:44:27;7.57;;;3.97;;
57969;SDS011;43777;42.656;23.264;2022-08-01T08:46:53;6.07;;;3.78;;
57969;SDS011;43777;42.656;23.264;2022-08-01T08:49:26;4.32;;;3.55;;
57969;SDS011;43777;42.656;23.264;2022-08-01T08:51:52;8.98;;;5.13;;
57969;SDS011;43777;42.656;23.264;2022-08-01T08:54:22;3.88;;;3.58;;
57969;SDS011;43777;42.656;23.264;2022-08-01T08:56:49;4.40;;;3.80;;
57969;SDS011;43777;42.656;23.264;2022-08-01T08:59:16;5.18;;;3.45;;
57969;SDS011;43777;42.656;23.264;2022-08-01T09:01:42;11.32;;;3.78;;
57969;SDS011;43777;42.656;23.264;2022-08-01T09:04:08;8.43;;;4.00;;
57969;SDS011;43777;42.656;23.264;2022-08-01T09:06:35;9.57;;;3.95;;
57969;SDS011;43777;42.656;23.264;2022-08-01T09:09:01;6.75;;;4.05;;
57969;SDS011;43777;42.656;23.264;2022-08-01T09:11:28;3.90;;;3.50;;
57969;SDS011;43777;42.656;23.264;2022-08-01T09:14:27;4.20;;;3.83;;
57969;SDS011;43777;42.656;23.264;2022-08-01T09:17:04;4.20;;;3.80;;
57969;SDS011;43777;42.656;23.264;2022-08-01T09:19:37;4.57;;;3.65;;
57969;SDS011;43777;42.656;23.264;2022-08-01T09:22:13;7.45;;;3.83;;
57969;SDS011;43777;42.656;23.264;2022-08-01T09:24:43;5.05;;;3.65;;
57969;SDS011;43777;42.656;23.264;2022-08-01T09:27:22;4.13;;;3.70;;
57969;SDS011;43777;42.656;23.264;2022-08-01T09:29:50;4.03;;;3.63;;
57969;SDS011;43777;42.656;23.264;2022-08-01T09:32:16;4.07;;;3.70;;
57969;SDS011;43777;42.656;23.264;2022-08-01T09:34:42;7.57;;;4.35;;
57969;SDS011;43777;42.656;23.264;2022-08-01T09:37:08;4.25;;;3.85;;
57969;SDS011;43777;42.656;23.264;2022-08-01T09:39:36;5.07;;;3.60;;
57969;SDS011;43777;42.656;23.264;2022-08-01T09:42:23;4.38;;;3.95;;
57969;SDS011;43777;42.656;23.264;2022-08-01T09:44:49;5.80;;;4.30;;
57969;SDS011;43777;42.656;23.264;2022-08-01T09:47:16;5.85;;;3.80;;
57969;SDS011;43777;42.656;23.264;2022-08-01T09:49:43;5.20;;;4.32;;
57969;SDS011;43777;42.656;23.264;2022-08-01T09:52:16;5.43;;;4.57;;
57969;SDS011;43777;42.656;23.264;2022-08-01T09:54:43;5.97;;;4.22;;
57969;SDS011;43777;42.656;23.264;2022-08-01T09:57:17;5.70;;;4.35;;
57969;SDS011;43777;42.656;23.264;2022-08-01T09:59:44;5.97;;;4.45;;
57969;SDS011;43777;42.656;23.264;2022-08-01T10:02:11;4.57;;;4.05;;
57969;SDS011;43777;42.656;23.264;2022-08-01T10:04:49;7.25;;;4.55;;
57969;SDS011;43777;42.656;23.264;2022-08-01T10:07:15;5.18;;;4.15;;
57969;SDS011;43777;42.656;23.264;2022-08-01T10:09:42;4.97;;;4.40;;
57969;SDS011;43777;42.656;23.264;2022-08-01T10:12:09;5.10;;;4.60;;
57969;SDS011;43777;42.656;23.264;2022-08-01T10:14:36;4.82;;;4.35;;
57969;SDS011;43777;42.656;23.264;2022-08-01T10:17:02;7.03;;;4.80;;
57969;SDS011;43777;42.656;23.264;2022-08-01T10:19:29;11.82;;;5.35;;
57969;SDS011;43777;42.656;23.264;2022-08-01T10:21:57;6.22;;;5.15;;
57969;SDS011;43777;42.656;23.264;2022-08-01T10:24:24;5.30;;;4.68;;
57969;SDS011;43777;42.656;23.264;2022-08-01T10:26:52;5.30;;;3.85;;
57969;SDS011;43777;42.656;23.264;2022-08-01T10:29:20;3.95;;;3.50;;
57969;SDS011;43777;42.656;23.264;2022-08-01T10:31:46;4.40;;;4.00;;
57969;SDS011;43777;42.656;23.264;2022-08-01T10:34:13;5.15;;;4.00;;
57969;SDS011;43777;42.656;23.264;2022-08-01T10:36:46;7.03;;;3.75;;
57969;SDS011;43777;42.656;23.264;2022-08-01T10:39:13;6.03;;;4.40;;
57969;SDS011;43777;42.656;23.264;2022-08-01T10:41:39;4.22;;;3.83;;
57969;SDS011;43777;42.656;23.264;2022-08-01T10:44:08;7.75;;;3.92;;
57969;SDS011;43777;42.656;23.264;2022-08-01T10:46:38;6.70;;;3.70;;
57969;SDS011;43777;42.656;23.264;2022-08-01T10:49:06;7.70;;;3.58;;
57969;SDS011;43777;42.656;23.264;2022-08-01T10:51:34;4.05;;;3.67;;
57969;SDS011;43777;42.656;23.264;2022-08-01T10:54:05;3.65;;;3.33;;
57969;SDS011;43777;42.656;23.264;2022-08-01T10:56:44;3.67;;;3.35;;
57969;SDS011;43777;42.656;23.264;2022-08-01T10:59:14;9.30;;;4.32;;
57969;SDS011;43777;42.656;23.264;2022-08-01T11:01:40;8.63;;;4.13;;
57969;SDS011;43777;42.656;23.264;2022-08-01T11:04:07;4.20;;;3.47;;
57969;SDS011;43777;42.656;23.264;2022-08-01T11:09:20;4.70;;;4.03;;
57969;SDS011;43777;42.656;23.264;2022-08-01T11:14:28;12.32;;;4.15;;
57969;SDS011;43777;42.656;23.264;2022-08-01T11:16:54;8.38;;;3.80;;
57969;SDS011;43777;42.656;23.264;2022-08-01T11:19:21;6.90;;;3.45;;
57969;SDS011;43777;42.656;23.264;2022-08-01T11:25:02;6.57;;;4.00;;
57969;SDS011;43777;42.656;23.264;2022-08-01T11:29:41;9.23;;;3.63;;
57969;SDS011;43777;42.656;23.264;2022-08-01T11:32:25;6.05;;;3.70;;
57969;SDS011;43777;42.656;23.264;2022-08-01T11:34:55;5.28;;;3.88;;
57969;SDS011;43777;42.656;23.264;2022-08-01T11:37:25;7.53;;;3.88;;
57969;SDS011;43777;42.656;23.264;2022-08-01T11:42:36;5.30;;;3.97;;
57969;SDS011;43777;42.656;23.264;2022-08-01T11:45:03;4.40;;;4.10;;
57969;SDS011;43777;42.656;23.264;2022-08-01T11:47:48;6.72;;;4.28;;
57969;SDS011;43777;42.656;23.264;2022-08-01T11:53:06;8.63;;;4.38;;
57969;SDS011;43777;42.656;23.264;2022-08-01T11:55:33;4.97;;;4.10;;
57969;SDS011;43777;42.656;23.264;2022-08-01T11:58:03;8.43;;;5.13;;
57969;SDS011;43777;42.656;23.264;2022-08-01T12:00:30;5.38;;;4.70;;
57969;SDS011;43777;42.656;23.264;2022-08-01T12:03:03;5.05;;;4.55;;
57969;SDS011;43777;42.656;23.264;2022-08-01T12:05:30;5.63;;;4.53;;
57969;SDS011;43777;42.656;23.264;2022-08-01T12:07:58;4.75;;;4.30;;
57969;SDS011;43777;42.656;23.264;2022-08-01T12:10:26;6.00;;;4.93;;
57969;SDS011;43777;42.656;23.264;2022-08-01T12:12:54;5.20;;;4.50;;
57969;SDS011;43777;42.656;23.264;2022-08-01T12:15:22;4.88;;;4.40;;
57969;SDS011;43777;42.656;23.264;2022-08-01T12:17:50;4.25;;;3.92;;
57969;SDS011;43777;42.656;23.264;2022-08-01T12:20:19;6.28;;;4.50;;
57969;SDS011;43777;42.656;23.264;2022-08-01T12:22:45;7.40;;;4.32;;
57969;SDS011;43777;42.656;23.264;2022-08-01T12:25:13;4.53;;;4.13;;
57969;SDS011;43777;42.656;23.264;2022-08-01T12:27:40;5.15;;;4.72;;
57969;SDS011;43777;42.656;23.264;2022-08-01T12:30:10;5.55;;;4.68;;
57969;SDS011;43777;42.656;23.264;2022-08-01T12:32:38;7.57;;;4.65;;
57969;SDS011;43777;42.656;23.264;2022-08-01T12:35:06;5.15;;;4.65;;
57969;SDS011;43777;42.656;23.264;2022-08-01T12:37:43;5.32;;;4.93;;
57969;SDS011;43777;42.656;23.264;2022-08-01T12:40:13;8.38;;;5.10;;
57969;SDS011;43777;42.656;23.264;2022-08-01T12:42:40;5.03;;;4.63;;
57969;SDS011;43777;42.656;23.264;2022-08-01T12:45:10;5.40;;;4.82;;
57969;SDS011;43777;42.656;23.264;2022-08-01T12:47:37;4.88;;;4.57;;
57969;SDS011;43777;42.656;23.264;2022-08-01T12:50:17;5.65;;;5.15;;
57969;SDS011;43777;42.656;23.264;2022-08-01T12:52:44;8.07;;;4.72;;
57969;SDS011;43777;42.656;23.264;2022-08-01T12:57:41;4.78;;;4.40;;
57969;SDS011;43777;42.656;23.264;2022-08-01T13:02:37;7.93;;;5.10;;
57969;SDS011;43777;42.656;23.264;2022-08-01T13:05:04;6.32;;;4.75;;
57969;SDS011;43777;42.656;23.264;2022-08-01T13:07:37;6.78;;;4.43;;
57969;SDS011;43777;42.656;23.264;2022-08-01T13:10:03;6.18;;;4.57;;
57969;SDS011;43777;42.656;23.264;2022-08-01T13:12:30;4.65;;;4.35;;
57969;SDS011;43777;42.656;23.264;2022-08-01T13:14:56;4.50;;;4.20;;
57969;SDS011;43777;42.656;23.264;2022-08-01T13:17:32;4.82;;;4.43;;
57969;SDS011;43777;42.656;23.264;2022-08-01T13:20:00;7.30;;;4.30;;
57969;SDS011;43777;42.656;23.264;2022-08-01T13:22:33;6.00;;;4.65;;
57969;SDS011;43777;42.656;23.264;2022-08-01T13:25:12;9.38;;;4.80;;
57969;SDS011;43777;42.656;23.264;2022-08-01T13:27:38;6.72;;;4.20;;
57969;SDS011;43777;42.656;23.264;2022-08-01T13:30:12;4.65;;;4.28;;
57969;SDS011;43777;42.656;23.264;2022-08-01T13:32:39;4.88;;;4.47;;
57969;SDS011;43777;42.656;23.264;2022-08-01T13:35:06;4.68;;;4.03;;
57969;SDS011;43777;42.656;23.264;2022-08-01T13:37:32;5.00;;;4.60;;
57969;SDS011;43777;42.656;23.264;2022-08-01T13:39:58;4.57;;;4.22;;
57969;SDS011;43777;42.656;23.264;2022-08-01T13:42:25;4.95;;;4.55;;
57969;SDS011;43777;42.656;23.264;2022-08-01T13:44:51;4.68;;;4.28;;
57969;SDS011;43777;42.656;23.264;2022-08-01T13:47:17;10.30;;;4.20;;
57969;SDS011;43777;42.656;23.264;2022-08-01T13:49:43;5.93;;;4.95;;
57969;SDS011;43777;42.656;23.264;2022-08-01T13:52:09;5.03;;;4.20;;
57969;SDS011;43777;42.656;23.264;2022-08-01T13:54:35;6.88;;;4.38;;
57969;SDS011;43777;42.656;23.264;2022-08-01T13:57:02;12.38;;;4.68;;
57969;SDS011;43777;42.656;23.264;2022-08-01T13:59:28;7.20;;;4.15;;
57969;SDS011;43777;42.656;23.264;2022-08-01T14:01:54;4.53;;;4.20;;
57969;SDS011;43777;42.656;23.264;2022-08-01T14:04:20;5.63;;;4.30;;
57969;SDS011;43777;42.656;23.264;2022-08-01T14:06:47;7.28;;;4.65;;
57969;SDS011;43777;42.656;23.264;2022-08-01T14:09:13;5.53;;;4.40;;
57969;SDS011;43777;42.656;23.264;2022-08-01T14:11:41;6.18;;;4.38;;
57969;SDS011;43777;42.656;23.264;2022-08-01T14:14:07;5.72;;;4.13;;
57969;SDS011;43777;42.656;23.264;2022-08-01T14:16:34;4.93;;;4.53;;
57969;SDS011;43777;42.656;23.264;2022-08-01T14:19:02;4.50;;;4.10;;
57969;SDS011;43777;42.656;23.264;2022-08-01T14:21:28;6.35;;;4.22;;
57969;SDS011;43777;42.656;23.264;2022-08-01T14:23:54;5.63;;;4.35;;
57969;SDS011;43777;42.656;23.264;2022-08-01T14:26:20;5.85;;;4.35;;
57969;SDS011;43777;42.656;23.264;2022-08-01T14:28:46;5.32;;;4.20;;
57969;SDS011;43777;42.656;23.264;2022-08-01T14:31:13;8.98;;;4.25;;
57969;SDS011;43777;42.656;23.264;2022-08-01T14:33:39;4.95;;;4.40;;
57969;SDS011;43777;42.656;23.264;2022-08-01T14:36:05;9.43;;;4.72;;
57969;SDS011;43777;42.656;23.264;2022-08-01T14:38:31;9.02;;;4.30;;
57969;SDS011;43777;42.656;23.264;2022-08-01T14:40:57;8.52;;;4.20;;
57969;SDS011;43777;42.656;23.264;2022-08-01T14:43:24;6.05;;;4.47;;
57969;SDS011;43777;42.656;23.264;2022-08-01T14:45:51;7.05;;;4.57;;
57969;SDS011;43777;42.656;23.264;2022-08-01T14:48:19;5.68;;;4.28;;
57969;SDS011;43777;42.656;23.264;2022-08-01T14:50:45;8.82;;;4.32;;
57969;SDS011;43777;42.656;23.264;2022-08-01T14:53:11;4.32;;;3.92;;
57969;SDS011;43777;42.656;23.264;2022-08-01T14:55:37;4.35;;;3.95;;
57969;SDS011;43777;42.656;23.264;2022-08-01T14:58:04;4.25;;;3.83;;
57969;SDS011;43777;42.656;23.264;2022-08-01T15:00:30;4.35;;;3.90;;
57969;SDS011;43777;42.656;23.264;2022-08-01T15:02:56;4.22;;;3.92;;
57969;SDS011;43777;42.656;23.264;2022-08-01T15:05:22;4.35;;;3.95;;
57969;SDS011;43777;42.656;23.264;2022-08-01T15:07:48;8.65;;;4.00;;
57969;SDS011;43777;42.656;23.264;2022-08-01T15:10:14;4.07;;;3.78;;
57969;SDS011;43777;42.656;23.264;2022-08-01T15:12:41;4.72;;;3.83;;